Pagrindinis puslapis
METAR-TAF:

METAR-TAF

Oro uostai :

Kefalonija, Graikija

platuma: 38-07N, ilguma: 020-30E, Aukštis: 19 m

Dabartinis oras

Ataskaita buvo paskelbta 10 valandos ir 16 minutes, ne 17:50 UTC
Vėjas 7 kt iš Šiaurės/Šiaurės Rytų
Temperatūra 10°C
Drėgmė 76%
Slėgis 1023 hPa
Matomumas 10 km arba daugiau
nėra debesų žemiau 1500 m ir nėra kamuolinių lietaus debesų

METAR: LGKF 171750Z 03007KT CAVOK 10/06 Q1023

Laikas: 06:06 (04:06 UTC)

Prognozė

Ataskaita buvo paskelbta 2 valandos ir 6 minutes, ne 02:00 UTC
Prognozė galioja nuo 18 metu 03 UTC su 18 metu 12 UTC
Vėjas 8 kt iš Rytų/Šiaurės Rytų
Matomumas 10 km arba daugiau
Mažai debesys ne aukštis 1800 ft

TAF: LGKF 180200Z 1803/1812 06008KT 9999 FEW018

Orai ataskaitas ir orų prognozės (METAR, TAF).

turimą stotys yra geltonos ir raudonos taškus žemėlapyje.

Perkelti pele per norėdami pamatyti stoties vardą.

Tada spustelėkite, norėdami matyti oro stebėjimo ir prognozės.

Norėdami pakeisti žemėlapį: spustelėkite ant žalios mygtukų su juodo kryžiaus žemyn,; žalią mygtuką su brūkšneliu, jei norite nutolinti; arba žalių rodyklių gretimoms žemėlapius.


METAR-TAF: